»·PEaware :: DAL3755 KSAN-KLAS

DAL3755 :: KSAN-KLAS

FLIGHT INFORMATION

Flight Status: Arrived
Operator:
Delta Air Lines
More flights by this operator :: More flights under this callsign
Pilot: Michael P. (28555)
Aircraft: AIRBUS A320
(A320)
More flights by this aircraft type
Origin: KSAN San Diego Intl-Lindbergh
United States
Destination: KLAS McCarran Intl
United States
More flights between these airports :: More routes between these airports
Route: +PADRZ2 CHKNN SEBBY YELAH MISEN KEPEC6
File this flight plan on PilotEdge
Remarks:
Altitude:
(Current/Filed)
34,000ft
Speed:
(Current/Filed)
457kts
Departed: 23-Mar-20 06:13 PM
Arrived: 23-Mar-20 07:10 PM
Distance/Time
Traveled:
225nm/0:57
Distance/Time
To Go:
Arrived

Flight Plot

Page will automatically refresh every two minutes.

Flight plan parsing failed; only flown route is shown


Map Options




Map Legend


Flown Route
Filed Route
Departure Airport
Arrival Airport
Navaid (VOR, NDB)
Fix

Horizontal Profiles

Position Reports

Time Latitude Longitude Heading Altitude Ground
Speed
23-Mar-20 17:31 32.733750 -117.203534 270 19ft 0kts
23-Mar-20 17:33 32.733750 -117.203534 270 19ft 0kts
23-Mar-20 17:34 32.733750 -117.203534 270 19ft 0kts
23-Mar-20 17:35 32.733750 -117.203534 270 19ft 0kts
23-Mar-20 17:36 32.733750 -117.203534 270 19ft 0kts
23-Mar-20 17:37 32.733750 -117.203534 270 19ft 0kts
23-Mar-20 17:38 32.733750 -117.203534 270 19ft 0kts
23-Mar-20 17:44 32.733750 -117.203534 270 19ft 0kts
23-Mar-20 17:45 32.733750 -117.203534 270 19ft 0kts
23-Mar-20 17:46 32.733750 -117.203534 270 19ft 0kts
23-Mar-20 17:47 32.733750 -117.203534 270 19ft 0kts
23-Mar-20 17:47 32.733750 -117.203534 270 19ft 0kts
23-Mar-20 17:49 32.733750 -117.203534 270 19ft 0kts
23-Mar-20 17:50 32.733750 -117.203534 270 19ft 0kts
23-Mar-20 17:50 32.733750 -117.203534 270 19ft 0kts
23-Mar-20 17:52 32.733750 -117.203534 270 19ft 0kts
23-Mar-20 17:53 32.733750 -117.203534 270 19ft 0kts
23-Mar-20 17:53 32.733750 -117.203534 270 19ft 0kts
23-Mar-20 17:54 32.733750 -117.203534 270 19ft 0kts
23-Mar-20 17:56 32.733750 -117.203534 270 19ft 0kts
23-Mar-20 17:56 32.733750 -117.203534 270 19ft 0kts
23-Mar-20 17:57 32.733750 -117.203533 270 19ft 0kts
23-Mar-20 17:58 32.733751 -117.203034 278 19ft 2kts
23-Mar-20 17:59 32.733432 -117.202661 345 19ft 0kts
23-Mar-20 18:00 32.733433 -117.202661 345 19ft 0kts
23-Mar-20 18:01 32.733433 -117.202661 345 19ft 0kts
23-Mar-20 18:02 32.733433 -117.202661 345 19ft 0kts
23-Mar-20 18:03 32.733433 -117.202661 345 19ft 0kts
23-Mar-20 18:04 32.733433 -117.202661 345 19ft 0kts
23-Mar-20 18:05 32.734190 -117.202656 17 19ft 11kts
23-Mar-20 18:06 32.734822 -117.199199 106 19ft 13kts
23-Mar-20 18:07 32.733787 -117.194977 106 22ft 11kts
23-Mar-20 18:08 32.732425 -117.189323 105 21ft 22kts
23-Mar-20 18:09 32.730603 -117.181774 106 19ft 24kts
23-Mar-20 18:10 32.729533 -117.176602 69 24ft 2kts
23-Mar-20 18:11 32.729547 -117.176557 69 24ft 1kts
23-Mar-20 18:12 32.731915 -117.182927 286 20ft 111kts
23-Mar-20 18:13 32.748348 -117.233876 305 2506ft 190kts
23-Mar-20 18:14 32.785492 -117.295356 304 4978ft 258kts
23-Mar-20 18:15 32.829332 -117.364610 306 8159ft 270kts
23-Mar-20 18:16 32.875585 -117.436147 306 9986ft 273kts
23-Mar-20 18:17 32.921998 -117.508242 306 10003ft 275kts
23-Mar-20 18:18 32.968706 -117.581009 306 11115ft 319kts
23-Mar-20 18:19 33.027987 -117.673500 305 12301ft 372kts
23-Mar-20 18:20 33.098319 -117.764505 316 14531ft 381kts
23-Mar-20 18:21 33.178702 -117.846339 315 16524ft 385kts
23-Mar-20 18:22 33.261992 -117.928361 315 18534ft 386kts
23-Mar-20 18:23 33.344227 -118.008627 314 20322ft 387kts
23-Mar-20 18:24 33.428713 -118.091384 313 21943ft 390kts
23-Mar-20 18:25 33.501885 -118.163242 312 23150ft 392kts
23-Mar-20 18:26 33.588057 -118.242497 323 23224ft 402kts
23-Mar-20 18:27 33.695898 -118.287307 347 23219ft 434kts
23-Mar-20 18:28 33.810561 -118.239567 35 23210ft 488kts
23-Mar-20 18:29 33.889719 -118.115618 50 23200ft 499kts
23-Mar-20 18:30 33.965815 -117.987139 50 23814ft 506kts
23-Mar-20 18:31 34.049477 -117.845239 50 24880ft 518kts
23-Mar-20 18:32 34.121596 -117.730320 44 25746ft 522kts
23-Mar-20 18:33 34.215031 -117.593690 44 26715ft 532kts
23-Mar-20 18:34 34.309472 -117.455035 44 27637ft 541kts
23-Mar-20 18:35 34.406371 -117.312217 45 28405ft 552kts
23-Mar-20 18:36 34.503996 -117.167727 45 29130ft 554kts
23-Mar-20 18:37 34.601211 -117.023271 44 29093ft 551kts
23-Mar-20 18:38 34.697307 -116.879889 42 29094ft 543kts
23-Mar-20 18:39 34.792274 -116.737640 42 29093ft 543kts
23-Mar-20 18:40 34.894794 -116.605167 28 29094ft 524kts
23-Mar-20 18:41 35.005032 -116.498383 30 28666ft 484kts
23-Mar-20 18:42 35.104786 -116.399977 35 28090ft 443kts
23-Mar-20 18:43 35.185908 -116.299058 37 27435ft 405kts
23-Mar-20 18:44 35.262500 -116.203080 37 26649ft 370kts
23-Mar-20 18:45 35.332890 -116.114478 37 25354ft 355kts
23-Mar-20 18:46 35.400775 -116.028777 37 24077ft 344kts
23-Mar-20 18:47 35.464660 -115.948025 37 24115ft 343kts
23-Mar-20 18:48 35.533363 -115.860873 37 24109ft 343kts
23-Mar-20 18:49 35.599686 -115.776540 37 24107ft 342kts
23-Mar-20 18:50 35.665939 -115.692111 38 22916ft 350kts
23-Mar-20 18:51 35.734990 -115.603874 38 20227ft 365kts
23-Mar-20 18:52 35.827076 -115.571404 358 17330ft 358kts
23-Mar-20 18:53 35.928780 -115.564636 8 14488ft 372kts
23-Mar-20 18:54 35.998593 -115.476703 67 12061ft 382kts
23-Mar-20 18:55 36.029256 -115.352966 92 9660ft 377kts
23-Mar-20 18:56 36.020277 -115.228464 94 8048ft 350kts
23-Mar-20 18:57 36.012890 -115.120230 95 8033ft 286kts
23-Mar-20 18:58 36.007106 -115.028689 95 7733ft 261kts
23-Mar-20 18:59 36.002049 -114.944549 96 5992ft 284kts
23-Mar-20 19:00 35.996005 -114.843381 96 5530ft 242kts
23-Mar-20 19:01 36.007047 -114.765710 31 5050ft 244kts
23-Mar-20 19:02 36.058106 -114.794558 292 5033ft 224kts
23-Mar-20 19:03 36.074245 -114.855229 270 5018ft 156kts
23-Mar-20 19:04 36.072603 -114.907738 264 4251ft 153kts
23-Mar-20 19:05 36.073646 -114.960256 270 3489ft 157kts
23-Mar-20 19:06 36.073532 -115.014480 271 3790ft 161kts
23-Mar-20 19:07 36.073505 -115.064801 270 2984ft 139kts
23-Mar-20 19:08 36.073584 -115.111223 272 2342ft 147kts
23-Mar-20 19:09 36.073655 -115.149531 270 2120ft 35kts
23-Mar-20 19:10 36.074970 -115.155638 304 2141ft 11kts
23-Mar-20 19:11 36.077916 -115.157936 56 2144ft 16kts
23-Mar-20 19:12 36.078043 -115.153169 89 2125ft 13kts
23-Mar-20 19:13 36.077762 -115.146957 94 2104ft 15kts
23-Mar-20 19:14 36.077687 -115.141623 29 2087ft 7kts
23-Mar-20 19:15 36.078596 -115.141581 0 2085ft 0kts
23-Mar-20 19:16 36.080329 -115.141581 359 2081ft 11kts
23-Mar-20 19:17 36.080965 -115.140294 135 2075ft 2kts
23-Mar-20 19:18 36.080843 -115.140140 133 2075ft 0kts
23-Mar-20 19:19 36.080843 -115.140140 133 2075ft 0kts
23-Mar-20 19:20 36.080843 -115.140140 133 2075ft 0kts
23-Mar-20 19:21 36.080843 -115.140140 133 2075ft 0kts
23-Mar-20 19:22 36.080843 -115.140140 133 2075ft 0kts
23-Mar-20 19:23 36.080843 -115.140140 133 2075ft 0kts

Navigation Log

Ident Type
Flight plan parsing failed, navigation log unavailable